createdAt,value
2023-01-25T00:01:55.698Z,21.97
2023-01-25T00:04:24.133Z,20.13
2023-01-25T00:06:52.031Z,20.17
2023-01-25T00:09:20.872Z,20.57
2023-01-25T00:11:48.404Z,21.67
2023-01-25T00:14:16.794Z,21.27
2023-01-25T00:16:44.626Z,19.10
2023-01-25T00:19:12.591Z,21.80
2023-01-25T00:21:40.172Z,23.50
2023-01-25T00:24:07.908Z,20.97
2023-01-25T00:26:36.476Z,21.57
2023-01-25T00:29:03.940Z,22.00
2023-01-25T00:31:34.325Z,23.03
2023-01-25T00:34:25.486Z,20.57
2023-01-25T00:37:01.731Z,21.83
2023-01-25T00:39:29.804Z,22.00
2023-01-25T00:41:57.042Z,20.00
2023-01-25T00:44:24.318Z,20.70
2023-01-25T00:46:51.506Z,22.77
2023-01-25T00:49:27.989Z,21.33
2023-01-25T00:51:56.160Z,20.93
2023-01-25T00:54:24.094Z,20.57
2023-01-25T00:56:56.711Z,21.27
2023-01-25T00:59:25.046Z,21.07
2023-01-25T01:01:53.457Z,20.20
2023-01-25T01:04:25.402Z,21.63
2023-01-25T01:06:54.284Z,21.80
2023-01-25T01:09:23.613Z,22.37
2023-01-25T01:11:51.035Z,19.67
2023-01-25T01:14:18.714Z,21.73
2023-01-25T01:16:46.072Z,22.57
2023-01-25T01:19:13.533Z,23.47
2023-01-25T01:21:41.041Z,21.53
2023-01-25T01:24:11.023Z,23.03
2023-01-25T01:26:38.576Z,23.30
2023-01-25T01:29:06.808Z,23.43
2023-01-25T01:31:34.386Z,23.37
2023-01-25T01:34:02.159Z,23.87
2023-01-25T01:36:31.432Z,20.70
2023-01-25T01:39:00.218Z,23.00
2023-01-25T01:41:27.606Z,23.03
2023-01-25T01:43:54.893Z,22.43
2023-01-25T01:46:33.588Z,24.00
2023-01-25T01:49:22.463Z,22.43
2023-01-25T01:51:54.578Z,23.67
2023-01-25T01:54:41.496Z,23.37
2023-01-25T01:57:37.369Z,23.67
2023-01-25T02:04:08.197Z,23.77
2023-01-25T02:06:47.528Z,23.73
2023-01-25T02:09:22.432Z,23.97
2023-01-25T02:11:53.163Z,24.20
2023-01-25T02:14:22.866Z,24.20
2023-01-25T02:16:50.220Z,23.33
2023-01-25T02:19:57.202Z,24.03
2023-01-25T02:22:38.739Z,23.00
2023-01-25T02:25:12.168Z,23.23
2023-01-25T02:27:46.553Z,22.97
2023-01-25T02:30:14.138Z,22.73
2023-01-25T02:32:42.583Z,23.57
2023-01-25T02:35:19.964Z,23.43
2023-01-25T02:37:47.551Z,24.57
2023-01-25T02:40:15.055Z,23.83
2023-01-25T02:42:49.154Z,23.17
2023-01-25T02:45:22.717Z,24.57
2023-01-25T02:47:49.992Z,22.70
2023-01-25T02:50:17.541Z,23.07
2023-01-25T02:52:44.874Z,19.43
2023-01-25T02:55:14.100Z,21.40
2023-01-25T02:57:41.460Z,23.80
2023-01-25T03:01:07.048Z,23.13
2023-01-25T03:03:34.346Z,24.17
2023-01-25T03:06:01.584Z,23.63
2023-01-25T03:08:29.132Z,24.57
2023-01-25T03:11:01.910Z,21.57
2023-01-25T03:13:29.949Z,22.43
2023-01-25T03:16:04.913Z,20.90
2023-01-25T03:18:32.331Z,22.13
2023-01-25T03:21:10.549Z,22.27
2023-01-25T03:23:38.831Z,23.43
2023-01-25T03:26:17.238Z,21.57
2023-01-25T03:28:44.922Z,21.60
2023-01-25T03:31:15.244Z,22.87
2023-01-25T03:33:43.124Z,21.30
2023-01-25T03:36:13.411Z,22.57
2023-01-25T03:38:40.651Z,21.87
2023-01-25T03:41:09.700Z,22.93
2023-01-25T03:43:36.937Z,25.43
2023-01-25T03:46:04.328Z,24.53
2023-01-25T03:48:31.876Z,25.60
2023-01-25T03:51:00.910Z,24.83
2023-01-25T03:53:31.024Z,24.40
2023-01-25T03:56:09.541Z,23.83
2023-01-25T03:58:40.462Z,24.13
2023-01-25T04:01:08.703Z,23.50
2023-01-25T04:03:36.190Z,24.67
2023-01-25T04:06:04.310Z,22.47
2023-01-25T04:08:31.895Z,23.80
2023-01-25T04:11:06.154Z,22.97
2023-01-25T04:13:37.258Z,24.90
2023-01-25T04:16:06.555Z,24.47
2023-01-25T04:18:34.270Z,23.53
2023-01-25T04:21:01.494Z,23.37
2023-01-25T04:23:29.060Z,23.13
2023-01-25T04:26:07.714Z,24.10
2023-01-25T04:28:35.765Z,23.67
2023-01-25T04:31:06.417Z,22.80
2023-01-25T04:33:35.360Z,24.10
2023-01-25T04:36:02.973Z,22.30
2023-01-25T04:38:30.225Z,23.43
2023-01-25T04:40:57.434Z,22.90
2023-01-25T04:43:26.375Z,21.90
2023-01-25T04:49:53.464Z,24.40
2023-01-25T04:52:20.561Z,24.23
2023-01-25T04:54:47.717Z,24.03
2023-01-25T04:57:14.903Z,24.13
2023-01-25T04:59:44.738Z,22.33
2023-01-25T05:02:12.001Z,22.63
2023-01-25T05:04:39.207Z,23.40
2023-01-25T05:07:06.385Z,24.27
2023-01-25T05:09:33.769Z,23.43
2023-01-25T05:12:01.098Z,22.73
2023-01-25T05:14:28.335Z,21.80
2023-01-25T05:16:55.575Z,21.07
2023-01-25T05:19:22.960Z,22.47
2023-01-25T05:21:59.141Z,21.27
2023-01-25T05:24:34.775Z,21.63
2023-01-25T05:27:08.047Z,22.80
2023-01-25T05:29:41.404Z,20.90
2023-01-25T05:32:16.485Z,21.37
2023-01-25T05:34:45.333Z,21.43
2023-01-25T05:37:17.603Z,21.30
2023-01-25T05:39:45.201Z,22.40
2023-01-25T05:42:17.961Z,21.20
2023-01-25T05:44:47.449Z,22.13
2023-01-25T05:47:17.954Z,22.13
2023-01-25T05:49:45.312Z,21.60
2023-01-25T05:52:17.389Z,20.17
2023-01-25T05:54:45.037Z,19.53
2023-01-25T05:57:15.018Z,22.20
2023-01-25T05:59:42.293Z,20.63
2023-01-25T06:02:09.580Z,20.37
2023-01-25T06:04:36.843Z,21.40
2023-01-25T06:07:04.215Z,20.93
2023-01-25T06:09:31.451Z,21.77
2023-01-25T06:11:58.790Z,20.83
2023-01-25T06:14:25.970Z,22.63
2023-01-25T06:16:53.181Z,22.50
2023-01-25T06:27:20.938Z,24.57
2023-01-25T06:34:13.780Z,22.07
2023-01-25T06:36:46.473Z,22.73
2023-01-25T06:39:15.466Z,22.63
2023-01-25T06:41:47.110Z,21.97
2023-01-25T06:44:15.723Z,23.07
2023-01-25T06:46:45.308Z,23.87
2023-01-25T06:49:16.208Z,23.70
2023-01-25T06:51:45.160Z,23.93
2023-01-25T06:54:14.200Z,22.97
2023-01-25T06:56:44.371Z,22.33
2023-01-25T06:59:12.589Z,23.60
2023-01-25T07:01:40.877Z,22.07
2023-01-25T07:04:14.253Z,22.37
2023-01-25T07:06:45.366Z,22.77
2023-01-25T07:09:50.637Z,22.37
2023-01-25T07:12:20.892Z,20.93
2023-01-25T07:14:49.856Z,21.83
2023-01-25T07:17:20.388Z,21.03
2023-01-25T07:19:52.522Z,20.97
2023-01-25T07:22:20.803Z,22.63
2023-01-25T07:24:52.010Z,22.57
2023-01-25T07:27:20.404Z,22.17
2023-01-25T07:29:51.231Z,22.70
2023-01-25T07:32:30.231Z,23.70
2023-01-25T07:35:00.706Z,22.80
2023-01-25T07:37:34.905Z,22.90
2023-01-25T07:40:08.631Z,23.80
2023-01-25T07:42:38.076Z,22.90
2023-01-25T07:45:11.070Z,22.90
2023-01-25T07:47:40.273Z,24.13
2023-01-25T07:50:09.308Z,23.67
2023-01-25T07:52:39.537Z,24.43
2023-01-25T07:55:13.339Z,22.47
2023-01-25T07:58:02.028Z,22.10
2023-01-25T08:00:32.465Z,22.60
2023-01-25T08:03:00.903Z,23.50
2023-01-25T08:05:29.573Z,21.47
2023-01-25T08:07:58.762Z,23.77
2023-01-25T08:10:27.408Z,23.63
2023-01-25T08:12:56.455Z,22.10
2023-01-25T08:15:25.712Z,24.93
2023-01-25T08:17:55.682Z,23.27
2023-01-25T08:20:24.578Z,23.13
2023-01-25T08:22:55.267Z,23.50
2023-01-25T08:25:23.339Z,22.57
2023-01-25T08:27:55.168Z,23.80
2023-01-25T08:30:25.630Z,23.70
2023-01-25T08:32:55.723Z,25.03
2023-01-25T08:36:25.755Z,23.80
2023-01-25T08:39:15.326Z,24.23
2023-01-25T08:41:43.770Z,25.23
2023-01-25T08:44:15.664Z,24.23
2023-01-25T08:46:43.879Z,23.77
2023-01-25T08:49:11.974Z,23.93
2023-01-25T08:51:42.499Z,25.53
2023-01-25T08:54:13.562Z,24.83
2023-01-25T08:56:42.887Z,24.57
2023-01-25T08:59:17.207Z,24.77
2023-01-25T09:01:45.593Z,23.37
2023-01-25T09:04:14.536Z,25.33
2023-01-25T09:06:43.647Z,24.97
2023-01-25T09:09:15.296Z,24.17
2023-01-25T09:11:45.575Z,25.40
2023-01-25T09:14:13.402Z,24.00
2023-01-25T09:16:42.757Z,24.17
2023-01-25T09:19:12.418Z,22.93
2023-01-25T09:21:44.232Z,24.27
2023-01-25T09:24:12.504Z,25.50
2023-01-25T09:26:50.239Z,24.87
2023-01-25T09:29:30.735Z,23.97
2023-01-25T09:32:00.388Z,23.90
2023-01-25T09:34:28.903Z,23.90
2023-01-25T09:37:01.325Z,24.53
2023-01-25T09:39:29.016Z,24.57
2023-01-25T09:42:14.953Z,23.97
2023-01-25T09:45:04.893Z,23.00
2023-01-25T09:48:18.640Z,24.30
2023-01-25T09:51:04.319Z,24.50
2023-01-25T09:53:52.388Z,26.30
2023-01-25T09:56:35.387Z,27.03
2023-01-25T09:59:17.219Z,26.30
2023-01-25T10:01:54.744Z,27.83
2023-01-25T10:04:44.123Z,25.73
2023-01-25T10:07:24.085Z,25.57
2023-01-25T10:10:35.772Z,27.40
2023-01-25T10:14:02.465Z,27.73
2023-01-25T10:16:56.822Z,27.03
2023-01-25T10:19:54.256Z,27.80
2023-01-25T10:22:30.102Z,28.57
2023-01-25T10:25:32.485Z,28.33
2023-01-25T10:28:22.782Z,27.37
2023-01-25T10:31:06.411Z,28.70
2023-01-25T10:33:41.245Z,28.20
2023-01-25T10:36:22.929Z,28.87
2023-01-25T10:39:01.307Z,29.60
2023-01-25T10:45:30.221Z,30.77
2023-01-25T10:48:11.028Z,31.17
2023-01-25T10:50:47.630Z,31.73
2023-01-25T10:53:46.999Z,31.43
2023-01-25T10:56:32.484Z,33.77
2023-01-25T10:59:31.898Z,31.77
2023-01-25T11:03:15.099Z,33.00
2023-01-25T11:05:56.792Z,34.27
2023-01-25T11:08:40.032Z,32.97
2023-01-25T11:11:41.486Z,33.87
2023-01-25T11:14:20.577Z,34.33
2023-01-25T11:16:51.287Z,33.67
2023-01-25T11:19:31.573Z,35.37
2023-01-25T11:22:02.322Z,35.20
2023-01-25T11:24:50.813Z,34.20
2023-01-25T11:27:33.015Z,35.80
2023-01-25T11:30:21.173Z,36.63
2023-01-25T11:32:49.921Z,35.37
2023-01-25T11:35:31.271Z,37.00
2023-01-25T11:38:24.142Z,35.90
2023-01-25T11:41:18.711Z,35.07
2023-01-25T11:44:18.971Z,36.47
2023-01-25T11:47:13.533Z,34.77
2023-01-25T11:50:27.752Z,35.33
2023-01-25T11:53:23.367Z,34.27
2023-01-25T11:56:26.031Z,34.17
2023-01-25T11:59:45.785Z,33.27
2023-01-25T12:02:45.889Z,36.97
2023-01-25T12:06:06.554Z,36.07
2023-01-25T12:09:05.936Z,33.80
2023-01-25T12:12:01.763Z,34.43
2023-01-25T12:14:51.841Z,35.63
2023-01-25T12:21:51.653Z,37.33
2023-01-25T12:33:26.506Z,36.90
2023-01-25T12:36:05.864Z,37.67
2023-01-25T12:39:20.411Z,38.27
2023-01-25T12:42:19.702Z,37.67
2023-01-25T12:44:59.061Z,36.93
2023-01-25T12:47:54.749Z,37.63
2023-01-25T12:50:27.601Z,36.77
2023-01-25T12:53:18.611Z,38.93
2023-01-25T12:55:49.594Z,38.53
2023-01-25T12:58:59.658Z,38.27
2023-01-25T13:02:03.581Z,35.93
2023-01-25T13:05:03.903Z,39.47
2023-01-25T13:08:31.717Z,37.20
2023-01-25T13:11:39.499Z,40.33
2023-01-25T13:15:16.071Z,39.60
2023-01-25T13:21:57.406Z,40.43
2023-01-25T13:24:36.127Z,39.00
2023-01-25T13:27:29.481Z,39.40
2023-01-25T13:30:24.263Z,41.33
2023-01-25T13:32:52.610Z,41.50
2023-01-25T13:35:30.118Z,40.30
2023-01-25T13:38:20.109Z,39.07
2023-01-25T13:41:12.742Z,41.27
2023-01-25T13:43:48.495Z,40.43
2023-01-25T13:46:24.938Z,39.60
2023-01-25T13:49:10.596Z,38.00
2023-01-25T13:51:42.152Z,40.07
2023-01-25T13:54:17.954Z,40.73
2023-01-25T13:56:50.067Z,38.83
2023-01-25T13:59:29.558Z,37.30
2023-01-25T14:02:00.150Z,40.03
2023-01-25T14:04:32.407Z,41.57
2023-01-25T14:07:10.112Z,40.80
2023-01-25T14:09:38.909Z,41.07
2023-01-25T14:12:12.541Z,41.80
2023-01-25T14:14:40.463Z,41.20
2023-01-25T14:17:30.396Z,41.63
2023-01-25T14:19:58.181Z,42.50
2023-01-25T14:22:38.255Z,39.87
2023-01-25T14:25:31.198Z,42.30
2023-01-25T14:28:03.684Z,41.50
2023-01-25T14:31:01.320Z,40.73
2023-01-25T14:33:33.425Z,42.47
2023-01-25T14:36:24.529Z,42.53
2023-01-25T14:38:54.613Z,43.93
2023-01-25T14:41:59.217Z,41.23
2023-01-25T14:44:30.445Z,41.30
2023-01-25T14:47:26.700Z,42.70
2023-01-25T14:54:23.632Z,40.60
2023-01-25T14:56:57.507Z,40.90
2023-01-25T15:04:50.771Z,41.60
2023-01-25T15:07:55.236Z,40.90
2023-01-25T15:10:27.837Z,42.60
2023-01-25T15:13:15.088Z,39.40
2023-01-25T15:16:06.785Z,37.37
2023-01-25T15:18:56.917Z,39.00
2023-01-25T15:21:34.465Z,40.17
2023-01-25T15:24:11.844Z,39.57
2023-01-25T15:27:18.639Z,39.97
2023-01-25T15:29:47.595Z,41.53
2023-01-25T15:32:22.139Z,43.50
2023-01-25T15:34:50.512Z,39.60
2023-01-25T15:37:18.838Z,40.83
2023-01-25T15:39:52.011Z,39.60
2023-01-25T15:42:19.941Z,39.97
2023-01-25T15:44:49.066Z,39.40
2023-01-25T15:47:17.867Z,40.90
2023-01-25T15:49:49.671Z,39.60
2023-01-25T15:52:17.410Z,40.67
2023-01-25T15:54:52.200Z,40.80
2023-01-25T15:57:36.921Z,42.20
2023-01-25T16:00:07.257Z,41.63
2023-01-25T16:02:35.265Z,41.90
2023-01-25T16:05:06.454Z,41.17
2023-01-25T16:07:38.461Z,41.30
2023-01-25T16:10:10.940Z,41.37
2023-01-25T16:12:39.520Z,40.63
2023-01-25T16:15:08.109Z,41.13
2023-01-25T16:17:36.487Z,39.53
2023-01-25T16:20:09.886Z,40.30
2023-01-25T16:22:37.993Z,41.07
2023-01-25T16:25:06.755Z,41.93
2023-01-25T16:27:36.315Z,40.77
2023-01-25T16:30:09.393Z,39.70
2023-01-25T16:32:37.460Z,39.10
2023-01-25T16:35:07.949Z,38.60
2023-01-25T16:37:57.361Z,39.27
2023-01-25T16:40:41.019Z,43.43
2023-01-25T16:43:10.452Z,41.43
2023-01-25T16:45:41.175Z,41.27
2023-01-25T16:48:17.934Z,40.83
2023-01-25T16:50:48.801Z,39.87
2023-01-25T16:53:22.055Z,42.07
2023-01-25T16:55:52.646Z,45.23
2023-01-25T16:58:21.093Z,44.13
2023-01-25T17:00:51.404Z,43.33
2023-01-25T17:03:19.724Z,43.40
2023-01-25T17:05:48.129Z,43.20
2023-01-25T17:08:16.550Z,43.53
2023-01-25T17:10:54.627Z,45.30
2023-01-25T17:13:27.699Z,44.47
2023-01-25T17:16:04.028Z,41.33
2023-01-25T17:18:36.166Z,41.80
2023-01-25T17:21:09.232Z,40.07
2023-01-25T17:23:38.374Z,42.73
2023-01-25T17:26:16.122Z,43.13
2023-01-25T17:28:48.817Z,40.30
2023-01-25T17:31:27.441Z,40.10
2023-01-25T17:34:08.636Z,41.27
2023-01-25T17:36:39.653Z,39.33
2023-01-25T17:39:08.522Z,38.17
2023-01-25T17:41:52.982Z,37.73
2023-01-25T17:44:26.025Z,37.90
2023-01-25T17:46:57.242Z,37.47
2023-01-25T17:49:28.627Z,36.00
2023-01-25T17:52:03.487Z,36.57
2023-01-25T17:54:32.432Z,35.67
2023-01-25T17:57:02.398Z,36.10
2023-01-25T17:59:35.240Z,36.77
2023-01-25T18:02:07.029Z,38.83
2023-01-25T18:04:35.854Z,38.10
2023-01-25T18:07:03.778Z,36.33
2023-01-25T18:09:44.906Z,37.63
2023-01-25T18:12:22.806Z,37.47
2023-01-25T18:14:50.658Z,35.90
2023-01-25T18:17:19.491Z,37.00
2023-01-25T18:19:47.347Z,38.63
2023-01-25T18:22:15.703Z,38.27
2023-01-25T18:25:36.031Z,37.60
2023-01-25T18:28:04.485Z,36.93
2023-01-25T18:30:38.155Z,36.80
2023-01-25T18:33:06.876Z,36.60
2023-01-25T18:35:44.698Z,36.37
2023-01-25T18:38:22.934Z,37.83
2023-01-25T18:48:39.001Z,36.60
2023-01-25T18:51:16.293Z,36.03
2023-01-25T18:53:50.846Z,34.37
2023-01-25T18:56:23.099Z,35.23
2023-01-25T18:58:52.623Z,35.50
2023-01-25T19:01:23.377Z,34.57
2023-01-25T19:03:55.779Z,37.27
2023-01-25T19:06:25.301Z,36.60
2023-01-25T19:08:54.722Z,36.30
2023-01-25T19:11:42.641Z,36.40
2023-01-25T19:14:10.492Z,37.80
2023-01-25T19:16:43.312Z,38.57
2023-01-25T19:19:11.830Z,38.80
2023-01-25T19:21:45.437Z,37.03
2023-01-25T19:24:18.066Z,35.83
2023-01-25T19:31:20.355Z,34.57
2023-01-25T19:38:17.950Z,35.97
2023-01-25T19:40:48.291Z,35.87
2023-01-25T19:43:15.679Z,35.33
2023-01-25T19:45:43.858Z,32.63
2023-01-25T19:48:13.885Z,33.30
2023-01-25T19:50:41.578Z,34.30
2023-01-25T19:53:13.381Z,34.77
2023-01-25T19:55:41.133Z,33.73
2023-01-25T19:58:11.089Z,34.77
2023-01-25T20:00:42.084Z,35.40
2023-01-25T20:03:16.174Z,33.67
2023-01-25T20:05:46.642Z,36.20
2023-01-25T20:08:17.146Z,35.97
2023-01-25T20:10:46.218Z,34.13
2023-01-25T20:13:17.667Z,34.77
2023-01-25T20:15:50.221Z,35.93
2023-01-25T20:18:24.831Z,35.80
2023-01-25T20:21:08.891Z,36.23
2023-01-25T20:23:49.299Z,38.73
2023-01-25T20:26:30.462Z,35.33
2023-01-25T20:29:02.786Z,35.67
2023-01-25T20:31:41.284Z,35.33
2023-01-25T20:34:17.567Z,35.30
2023-01-25T20:36:47.495Z,30.00
2023-01-25T20:39:28.217Z,31.87
2023-01-25T20:41:58.169Z,34.80
2023-01-25T20:44:29.934Z,36.67
2023-01-25T20:47:01.871Z,34.33
2023-01-25T20:49:30.545Z,34.93
2023-01-25T20:52:57.720Z,32.73
2023-01-25T20:55:28.451Z,33.80
2023-01-25T20:58:09.338Z,35.20
2023-01-25T21:00:40.544Z,36.10
2023-01-25T21:03:12.778Z,35.57
2023-01-25T21:05:43.879Z,35.60
2023-01-25T21:08:15.542Z,38.10
2023-01-25T21:11:04.649Z,38.50
2023-01-25T21:13:36.254Z,37.90
2023-01-25T21:16:25.023Z,37.50
2023-01-25T21:18:58.867Z,37.90
2023-01-25T21:21:34.374Z,34.47
2023-01-25T21:24:04.937Z,37.03
2023-01-25T21:26:46.704Z,36.73
2023-01-25T21:29:16.926Z,37.97
2023-01-25T21:31:44.441Z,37.80
2023-01-25T21:34:13.394Z,39.50
2023-01-25T21:36:41.301Z,37.53
2023-01-25T21:39:09.470Z,35.43
2023-01-25T21:41:39.369Z,35.97
2023-01-25T21:44:25.922Z,35.47
2023-01-25T21:47:23.532Z,35.87
2023-01-25T21:49:59.714Z,35.70
2023-01-25T21:52:27.038Z,36.03
2023-01-25T21:54:55.368Z,33.87
2023-01-25T21:57:24.531Z,33.87
2023-01-25T22:00:02.881Z,37.43
2023-01-25T22:02:34.779Z,35.80
2023-01-25T22:10:18.786Z,32.50
2023-01-25T22:12:51.100Z,34.60
2023-01-25T22:15:21.113Z,32.20
2023-01-25T22:17:49.345Z,36.53
2023-01-25T22:20:17.255Z,37.27
2023-01-25T22:22:47.589Z,38.50
2023-01-25T22:25:16.067Z,36.00
2023-01-25T22:28:00.696Z,37.20
2023-01-25T22:30:28.996Z,36.70
2023-01-25T22:32:57.968Z,33.20
2023-01-25T22:35:26.333Z,32.83
2023-01-25T22:37:55.632Z,35.90
2023-01-25T22:40:25.345Z,35.00
2023-01-25T22:42:55.207Z,35.03
2023-01-25T22:45:25.487Z,35.83
2023-01-25T22:47:54.052Z,35.57
2023-01-25T22:50:22.568Z,35.77
2023-01-25T22:52:51.101Z,35.83
2023-01-25T22:55:19.785Z,35.80
2023-01-25T22:57:50.744Z,33.90
2023-01-25T23:00:22.307Z,38.70
2023-01-25T23:02:50.887Z,36.60
2023-01-25T23:05:19.897Z,39.63
2023-01-25T23:07:47.921Z,37.67
2023-01-25T23:10:19.715Z,38.60
2023-01-25T23:12:51.976Z,39.87
2023-01-25T23:15:22.579Z,38.60
2023-01-25T23:18:08.566Z,39.80
2023-01-25T23:20:36.426Z,39.37
2023-01-25T23:23:04.343Z,41.73
2023-01-25T23:25:32.114Z,39.27
2023-01-25T23:28:07.569Z,40.63
2023-01-25T23:30:35.249Z,39.23
2023-01-25T23:33:02.929Z,40.47
2023-01-25T23:35:30.397Z,39.00
2023-01-25T23:37:57.961Z,38.53
2023-01-25T23:40:25.399Z,38.60
2023-01-25T23:42:52.787Z,37.90
2023-01-25T23:45:20.331Z,38.07
2023-01-25T23:47:48.106Z,37.97
2023-01-25T23:50:15.440Z,38.90
2023-01-25T23:52:42.817Z,38.63
2023-01-25T23:55:11.276Z,38.33
2023-01-25T23:57:38.481Z,39.47
